Sasebo Usn, Japan

11:26 AM JST on August 30, 2015 (GMT +0900)
Nagasaki | | Change Station
CLOSE
Current Station
Airport
Location: Nagasaki Airport,
Elevation: 16 ft
Nearby Weather Stations

Elev 16 ft 32.92 °N, 129.91 °E | Updated 26 minutes ago

Scattered Clouds
Scattered Clouds
79 °F
Feels Like 79 °F
N
2
Wind Variable Wind from Variable

Today
High -- | Low -- °F
--% Chance of Precip.
Yesterday
High -- | Low -- °F
Precip. -- in
5:53 AM 6:49 PM
Full, 100% visible
Pressure 29.86 in
Visibility 5.0 miles
Clouds Few 1500 ft
Scattered Clouds 13000 ft
Dew Point 72 °F
Humidity 78%
Rainfall 0.00 in
Snow Depth Not available.
UV 8 out of 12
Pollen Not available.
Air Quality Not available.
Flu Activity Not available.
METAR RJFU 300200Z VRB02KT 8000 FEW015 SCT130 BKN/// 26/22 Q1011
Pressure 29.86 in
Visibility 5.0 miles
Clouds Few 1500 ft
Scattered Clouds 13000 ft
Dew Point 72 °F
Humidity 78%
Rainfall 0.00 in
Snow Depth Not available.
UV 8 out of 12
Pollen Not available.
Air Quality Not available.
Flu Activity Not available.
METAR RJFU 300200Z VRB02KT 8000 FEW015 SCT130 BKN/// 26/22 Q1011

10-Day Weather Forecast

×

Almanac

Astronomy

Aug. 30, 2015 Rise Set
Actual Time
Civil Twilight
Nautical Twilight
Astronomical Twilight
Moon
Length of Visible Light
Length of Day
Tomorrow will be .
, % of the Moon is Illuminated

Today's Extremes

Country Highs Country Lows

Community

WunderPhotos

Upload Photos

1,850,850 photos uploaded!

WunderBlogs® & News

Nearby

Air Quality

  Air Quality AQ Index Pollutant
Not available.

Snow Depth

Station Depth Elevation

Earthquake Activity

City Distance Mag. Time & Date
Minimum magnitude displayed is 2.5.

Coastal Water Temperatures

Place Temperature

Stations

Nearby Weather Stations

Station Location Temp. Windchill Dew Point Humidity Wind Precip. Elev Updated Type